sensor_id;sensor_type;location;lat;lon;timestamp;temperature;humidity
72762;SHT30;60886;55.034;73.150;2022-08-03T00:00:19;13.61;80.34
72762;SHT30;60886;55.034;73.150;2022-08-03T00:06:37;13.77;80.03
72762;SHT30;60886;55.034;73.150;2022-08-03T00:09:54;13.78;80.00
72762;SHT30;60886;55.034;73.150;2022-08-03T00:12:48;13.83;79.86
72762;SHT30;60886;55.034;73.150;2022-08-03T00:15:52;13.84;79.74
72762;SHT30;60886;55.034;73.150;2022-08-03T00:18:40;13.81;79.97
72762;SHT30;60886;55.034;73.150;2022-08-03T00:21:27;13.78;79.82
72762;SHT30;60886;55.034;73.150;2022-08-03T00:24:17;13.84;79.60
72762;SHT30;60886;55.034;73.150;2022-08-03T00:26:52;13.83;79.91
72762;SHT30;60886;55.034;73.150;2022-08-03T00:29:29;13.84;79.72
72762;SHT30;60886;55.034;73.150;2022-08-03T00:31:55;13.91;79.65
72762;SHT30;60886;55.034;73.150;2022-08-03T00:34:22;13.95;79.69
72762;SHT30;60886;55.034;73.150;2022-08-03T00:36:48;14.01;79.50
72762;SHT30;60886;55.034;73.150;2022-08-03T00:39:14;14.05;79.01
72762;SHT30;60886;55.034;73.150;2022-08-03T00:41:41;14.08;79.12
72762;SHT30;60886;55.034;73.150;2022-08-03T00:44:17;14.12;79.16
72762;SHT30;60886;55.034;73.150;2022-08-03T00:46:44;14.20;78.85
72762;SHT30;60886;55.034;73.150;2022-08-03T00:49:10;14.24;78.51
72762;SHT30;60886;55.034;73.150;2022-08-03T00:51:37;14.28;78.28
72762;SHT30;60886;55.034;73.150;2022-08-03T00:54:03;14.29;78.41
72762;SHT30;60886;55.034;73.150;2022-08-03T00:56:30;14.36;77.88
72762;SHT30;60886;55.034;73.150;2022-08-03T00:58:57;14.38;77.81
72762;SHT30;60886;55.034;73.150;2022-08-03T01:01:24;14.39;78.01
72762;SHT30;60886;55.034;73.150;2022-08-03T01:03:51;14.45;78.24
72762;SHT30;60886;55.034;73.150;2022-08-03T01:06:59;14.52;78.74
72762;SHT30;60886;55.034;73.150;2022-08-03T01:09:54;14.62;78.19
72762;SHT30;60886;55.034;73.150;2022-08-03T01:12:58;14.72;78.34
72762;SHT30;60886;55.034;73.150;2022-08-03T01:15:40;14.80;78.19
72762;SHT30;60886;55.034;73.150;2022-08-03T01:18:30;14.85;77.78
72762;SHT30;60886;55.034;73.150;2022-08-03T01:21:36;14.97;77.30
72762;SHT30;60886;55.034;73.150;2022-08-03T01:32:00;15.36;76.09
72762;SHT30;60886;55.034;73.150;2022-08-03T01:34:35;15.55;75.31
72762;SHT30;60886;55.034;73.150;2022-08-03T01:37:06;15.68;74.95
72762;SHT30;60886;55.034;73.150;2022-08-03T01:39:36;15.77;74.50
72762;SHT30;60886;55.034;73.150;2022-08-03T01:42:06;15.90;73.84
72762;SHT30;60886;55.034;73.150;2022-08-03T01:44:35;16.05;74.18
72762;SHT30;60886;55.034;73.150;2022-08-03T01:47:06;16.13;73.10
72762;SHT30;60886;55.034;73.150;2022-08-03T01:49:38;16.12;73.35
72762;SHT30;60886;55.034;73.150;2022-08-03T01:52:06;16.26;73.87
72762;SHT30;60886;55.034;73.150;2022-08-03T01:54:42;16.39;73.12
72762;SHT30;60886;55.034;73.150;2022-08-03T01:57:09;16.53;71.56
72762;SHT30;60886;55.034;73.150;2022-08-03T01:59:38;16.62;71.89
72762;SHT30;60886;55.034;73.150;2022-08-03T02:02:06;16.65;72.47
72762;SHT30;60886;55.034;73.150;2022-08-03T02:04:34;16.70;71.81
72762;SHT30;60886;55.034;73.150;2022-08-03T02:07:02;16.75;70.91
72762;SHT30;60886;55.034;73.150;2022-08-03T02:09:30;16.79;70.63
72762;SHT30;60886;55.034;73.150;2022-08-03T02:11:57;16.86;70.00
72762;SHT30;60886;55.034;73.150;2022-08-03T02:14:27;16.93;69.64
72762;SHT30;60886;55.034;73.150;2022-08-03T02:16:54;17.02;70.06
72762;SHT30;60886;55.034;73.150;2022-08-03T02:19:22;17.23;69.72
72762;SHT30;60886;55.034;73.150;2022-08-03T02:21:50;17.42;68.72
72762;SHT30;60886;55.034;73.150;2022-08-03T02:24:18;17.52;69.05
72762;SHT30;60886;55.034;73.150;2022-08-03T02:26:45;17.71;67.87
72762;SHT30;60886;55.034;73.150;2022-08-03T02:29:24;17.77;68.44
72762;SHT30;60886;55.034;73.150;2022-08-03T02:31:56;17.81;67.65
72762;SHT30;60886;55.034;73.150;2022-08-03T02:34:33;17.86;69.04
72762;SHT30;60886;55.034;73.150;2022-08-03T02:37:01;17.95;67.54
72762;SHT30;60886;55.034;73.150;2022-08-03T02:39:30;17.96;67.97
72762;SHT30;60886;55.034;73.150;2022-08-03T02:41:59;17.96;67.70
72762;SHT30;60886;55.034;73.150;2022-08-03T02:44:31;18.03;67.66
72762;SHT30;60886;55.034;73.150;2022-08-03T02:47:05;18.19;67.85
72762;SHT30;60886;55.034;73.150;2022-08-03T02:49:32;18.33;66.15
72762;SHT30;60886;55.034;73.150;2022-08-03T02:52:00;18.36;66.29
72762;SHT30;60886;55.034;73.150;2022-08-03T02:54:28;18.47;67.81
72762;SHT30;60886;55.034;73.150;2022-08-03T02:56:56;18.63;66.64
72762;SHT30;60886;55.034;73.150;2022-08-03T02:59:30;18.74;66.82
72762;SHT30;60886;55.034;73.150;2022-08-03T03:01:59;18.81;65.37
72762;SHT30;60886;55.034;73.150;2022-08-03T03:04:31;18.84;64.99
72762;SHT30;60886;55.034;73.150;2022-08-03T03:06:59;18.87;64.72
72762;SHT30;60886;55.034;73.150;2022-08-03T03:09:36;18.90;65.20
72762;SHT30;60886;55.034;73.150;2022-08-03T03:12:03;19.01;63.91
72762;SHT30;60886;55.034;73.150;2022-08-03T03:14:36;19.11;63.93
72762;SHT30;60886;55.034;73.150;2022-08-03T03:17:13;19.12;64.34
72762;SHT30;60886;55.034;73.150;2022-08-03T03:19:41;19.27;64.67
72762;SHT30;60886;55.034;73.150;2022-08-03T03:22:11;19.21;62.41
72762;SHT30;60886;55.034;73.150;2022-08-03T03:24:38;19.29;63.89
72762;SHT30;60886;55.034;73.150;2022-08-03T03:27:17;19.44;63.10
72762;SHT30;60886;55.034;73.150;2022-08-03T03:29:54;19.66;63.69
72762;SHT30;60886;55.034;73.150;2022-08-03T03:32:27;19.85;60.25
72762;SHT30;60886;55.034;73.150;2022-08-03T03:35:05;20.10;60.35
72762;SHT30;60886;55.034;73.150;2022-08-03T03:37:37;20.33;60.89
72762;SHT30;60886;55.034;73.150;2022-08-03T03:40:09;20.44;58.76
72762;SHT30;60886;55.034;73.150;2022-08-03T03:42:37;20.48;56.18
72762;SHT30;60886;55.034;73.150;2022-08-03T03:45:07;20.45;57.01
72762;SHT30;60886;55.034;73.150;2022-08-03T03:47:39;20.57;58.47
72762;SHT30;60886;55.034;73.150;2022-08-03T03:50:06;20.63;57.56
72762;SHT30;60886;55.034;73.150;2022-08-03T03:52:33;20.64;55.85
72762;SHT30;60886;55.034;73.150;2022-08-03T03:55:00;20.64;55.95
72762;SHT30;60886;55.034;73.150;2022-08-03T03:57:36;20.71;55.56
72762;SHT30;60886;55.034;73.150;2022-08-03T04:00:09;20.81;56.62
72762;SHT30;60886;55.034;73.150;2022-08-03T04:02:41;20.87;54.08
72762;SHT30;60886;55.034;73.150;2022-08-03T04:05:14;20.88;54.20
72762;SHT30;60886;55.034;73.150;2022-08-03T04:08:08;20.99;53.48
72762;SHT30;60886;55.034;73.150;2022-08-03T04:13:50;21.11;51.22
72762;SHT30;60886;55.034;73.150;2022-08-03T04:16:20;21.12;53.64
72762;SHT30;60886;55.034;73.150;2022-08-03T04:18:52;21.15;51.06
72762;SHT30;60886;55.034;73.150;2022-08-03T04:21:20;21.19;51.37
72762;SHT30;60886;55.034;73.150;2022-08-03T04:23:56;21.35;50.07
72762;SHT30;60886;55.034;73.150;2022-08-03T04:26:26;21.41;49.84
72762;SHT30;60886;55.034;73.150;2022-08-03T04:28:53;21.35;49.51
72762;SHT30;60886;55.034;73.150;2022-08-03T04:31:22;21.35;48.91
72762;SHT30;60886;55.034;73.150;2022-08-03T04:34:00;21.38;50.96
72762;SHT30;60886;55.034;73.150;2022-08-03T04:36:33;21.35;49.23
72762;SHT30;60886;55.034;73.150;2022-08-03T04:39:07;21.35;50.00
72762;SHT30;60886;55.034;73.150;2022-08-03T04:41:37;21.38;49.72
72762;SHT30;60886;55.034;73.150;2022-08-03T04:44:05;21.43;49.70
72762;SHT30;60886;55.034;73.150;2022-08-03T04:46:38;21.38;45.88
72762;SHT30;60886;55.034;73.150;2022-08-03T04:49:09;21.35;46.62
72762;SHT30;60886;55.034;73.150;2022-08-03T04:51:37;21.41;48.15
72762;SHT30;60886;55.034;73.150;2022-08-03T04:54:05;21.49;47.99
72762;SHT30;60886;55.034;73.150;2022-08-03T04:56:39;21.55;49.48
72762;SHT30;60886;55.034;73.150;2022-08-03T04:59:07;21.53;48.77
72762;SHT30;60886;55.034;73.150;2022-08-03T05:01:43;21.53;47.16
72762;SHT30;60886;55.034;73.150;2022-08-03T05:04:10;21.62;47.08
72762;SHT30;60886;55.034;73.150;2022-08-03T05:06:36;21.58;46.74
72762;SHT30;60886;55.034;73.150;2022-08-03T05:09:07;21.60;46.59
72762;SHT30;60886;55.034;73.150;2022-08-03T05:11:41;21.50;46.22
72762;SHT30;60886;55.034;73.150;2022-08-03T05:14:07;21.53;46.37
72762;SHT30;60886;55.034;73.150;2022-08-03T05:16:36;21.53;45.90
72762;SHT30;60886;55.034;73.150;2022-08-03T05:19:02;21.53;46.28
72762;SHT30;60886;55.034;73.150;2022-08-03T05:21:29;21.63;48.51
72762;SHT30;60886;55.034;73.150;2022-08-03T05:23:55;21.60;44.69
72762;SHT30;60886;55.034;73.150;2022-08-03T05:26:22;21.55;45.93
72762;SHT30;60886;55.034;73.150;2022-08-03T05:28:48;21.52;46.22
72762;SHT30;60886;55.034;73.150;2022-08-03T05:31:14;21.42;46.63
72762;SHT30;60886;55.034;73.150;2022-08-03T05:33:41;21.48;47.80
72762;SHT30;60886;55.034;73.150;2022-08-03T05:36:09;21.53;47.63
72762;SHT30;60886;55.034;73.150;2022-08-03T05:38:36;21.56;47.48
72762;SHT30;60886;55.034;73.150;2022-08-03T05:41:03;21.50;48.32
72762;SHT30;60886;55.034;73.150;2022-08-03T05:43:39;21.48;46.77
72762;SHT30;60886;55.034;73.150;2022-08-03T05:46:06;21.43;48.40
72762;SHT30;60886;55.034;73.150;2022-08-03T05:48:32;21.53;48.92
72762;SHT30;60886;55.034;73.150;2022-08-03T05:51:04;21.66;49.62
72762;SHT30;60886;55.034;73.150;2022-08-03T05:53:33;21.70;48.37
72762;SHT30;60886;55.034;73.150;2022-08-03T05:56:03;21.69;50.13
72762;SHT30;60886;55.034;73.150;2022-08-03T05:58:30;21.78;49.04
72762;SHT30;60886;55.034;73.150;2022-08-03T06:01:06;21.70;48.27
72762;SHT30;60886;55.034;73.150;2022-08-03T06:03:32;21.69;47.33
72762;SHT30;60886;55.034;73.150;2022-08-03T06:05:59;21.69;48.83
72762;SHT30;60886;55.034;73.150;2022-08-03T06:08:25;21.75;47.97
72762;SHT30;60886;55.034;73.150;2022-08-03T06:10:52;21.75;48.41
72762;SHT30;60886;55.034;73.150;2022-08-03T06:13:18;21.79;47.90
72762;SHT30;60886;55.034;73.150;2022-08-03T06:15:46;21.78;46.73
72762;SHT30;60886;55.034;73.150;2022-08-03T06:18:12;21.69;46.80
72762;SHT30;60886;55.034;73.150;2022-08-03T06:20:49;21.66;47.41
72762;SHT30;60886;55.034;73.150;2022-08-03T06:23:16;21.75;47.44
72762;SHT30;60886;55.034;73.150;2022-08-03T06:25:42;21.72;47.95
72762;SHT30;60886;55.034;73.150;2022-08-03T06:28:09;21.75;46.47
72762;SHT30;60886;55.034;73.150;2022-08-03T06:30:36;21.70;46.17
72762;SHT30;60886;55.034;73.150;2022-08-03T06:33:02;21.66;47.93
72762;SHT30;60886;55.034;73.150;2022-08-03T06:35:28;21.66;47.59
72762;SHT30;60886;55.034;73.150;2022-08-03T06:37:58;21.69;48.96
72762;SHT30;60886;55.034;73.150;2022-08-03T06:40:25;21.76;47.52
72762;SHT30;60886;55.034;73.150;2022-08-03T06:42:57;21.70;46.96
72762;SHT30;60886;55.034;73.150;2022-08-03T06:45:25;21.70;47.53
72762;SHT30;60886;55.034;73.150;2022-08-03T06:50:33;21.69;49.18
72762;SHT30;60886;55.034;73.150;2022-08-03T06:53:00;21.70;46.72
72762;SHT30;60886;55.034;73.150;2022-08-03T06:55:27;21.72;47.26
72762;SHT30;60886;55.034;73.150;2022-08-03T06:57:53;21.78;48.19
72762;SHT30;60886;55.034;73.150;2022-08-03T07:00:20;21.76;47.50
72762;SHT30;60886;55.034;73.150;2022-08-03T07:02:57;21.80;48.12
72762;SHT30;60886;55.034;73.150;2022-08-03T07:05:23;21.83;48.62
72762;SHT30;60886;55.034;73.150;2022-08-03T07:08:01;21.94;46.97
72762;SHT30;60886;55.034;73.150;2022-08-03T07:10:28;21.90;48.98
72762;SHT30;60886;55.034;73.150;2022-08-03T07:12:54;21.90;47.28
72762;SHT30;60886;55.034;73.150;2022-08-03T07:15:21;21.99;49.07
72762;SHT30;60886;55.034;73.150;2022-08-03T07:17:58;22.06;48.21
72762;SHT30;60886;55.034;73.150;2022-08-03T07:20:24;22.07;47.51
72762;SHT30;60886;55.034;73.150;2022-08-03T07:22:51;22.06;46.45
72762;SHT30;60886;55.034;73.150;2022-08-03T07:25:17;21.96;48.12
72762;SHT30;60886;55.034;73.150;2022-08-03T07:27:46;21.93;47.29
72762;SHT30;60886;55.034;73.150;2022-08-03T07:30:13;21.83;45.67
72762;SHT30;60886;55.034;73.150;2022-08-03T07:32:45;21.79;47.32
72762;SHT30;60886;55.034;73.150;2022-08-03T07:35:11;21.88;46.89
72762;SHT30;60886;55.034;73.150;2022-08-03T07:37:38;21.90;46.72
72762;SHT30;60886;55.034;73.150;2022-08-03T07:40:05;21.94;45.77
72762;SHT30;60886;55.034;73.150;2022-08-03T07:42:31;21.94;46.01
72762;SHT30;60886;55.034;73.150;2022-08-03T07:44:58;21.97;46.60
72762;SHT30;60886;55.034;73.150;2022-08-03T07:47:27;22.00;46.99
72762;SHT30;60886;55.034;73.150;2022-08-03T07:49:59;21.97;45.43
72762;SHT30;60886;55.034;73.150;2022-08-03T07:52:26;22.00;46.27
72762;SHT30;60886;55.034;73.150;2022-08-03T07:55:29;22.10;46.67
72762;SHT30;60886;55.034;73.150;2022-08-03T07:58:06;22.17;50.39
72762;SHT30;60886;55.034;73.150;2022-08-03T08:00:35;22.27;47.44
72762;SHT30;60886;55.034;73.150;2022-08-03T08:03:01;22.24;47.31
72762;SHT30;60886;55.034;73.150;2022-08-03T08:05:31;22.24;50.29
72762;SHT30;60886;55.034;73.150;2022-08-03T08:07:58;22.27;48.30
72762;SHT30;60886;55.034;73.150;2022-08-03T08:10:24;22.31;45.51
72762;SHT30;60886;55.034;73.150;2022-08-03T08:12:51;22.30;49.51
72762;SHT30;60886;55.034;73.150;2022-08-03T08:15:19;22.29;47.66
72762;SHT30;60886;55.034;73.150;2022-08-03T08:17:49;22.25;47.35
72762;SHT30;60886;55.034;73.150;2022-08-03T08:20:24;22.30;47.91
72762;SHT30;60886;55.034;73.150;2022-08-03T08:23:01;22.40;49.38
72762;SHT30;60886;55.034;73.150;2022-08-03T08:25:29;22.44;47.09
72762;SHT30;60886;55.034;73.150;2022-08-03T08:27:59;22.45;48.71
72762;SHT30;60886;55.034;73.150;2022-08-03T08:30:30;22.45;46.63
72762;SHT30;60886;55.034;73.150;2022-08-03T08:32:57;22.40;47.00
72762;SHT30;60886;55.034;73.150;2022-08-03T08:35:29;22.34;46.83
72762;SHT30;60886;55.034;73.150;2022-08-03T08:37:55;22.40;46.23
72762;SHT30;60886;55.034;73.150;2022-08-03T08:40:22;22.45;47.66
72762;SHT30;60886;55.034;73.150;2022-08-03T08:42:49;22.55;46.19
72762;SHT30;60886;55.034;73.150;2022-08-03T08:45:19;22.55;46.86
72762;SHT30;60886;55.034;73.150;2022-08-03T08:47:47;22.61;48.91
72762;SHT30;60886;55.034;73.150;2022-08-03T08:50:18;22.64;46.77
72762;SHT30;60886;55.034;73.150;2022-08-03T08:52:55;22.68;46.07
72762;SHT30;60886;55.034;73.150;2022-08-03T08:55:24;22.68;45.65
72762;SHT30;60886;55.034;73.150;2022-08-03T08:58:01;22.64;46.27
72762;SHT30;60886;55.034;73.150;2022-08-03T09:00:31;22.65;46.62
72762;SHT30;60886;55.034;73.150;2022-08-03T09:02:57;22.69;46.33
72762;SHT30;60886;55.034;73.150;2022-08-03T09:05:35;22.72;47.63
72762;SHT30;60886;55.034;73.150;2022-08-03T09:08:13;22.72;46.22
72762;SHT30;60886;55.034;73.150;2022-08-03T09:10:39;22.75;46.90
72762;SHT30;60886;55.034;73.150;2022-08-03T09:13:06;22.81;45.73
72762;SHT30;60886;55.034;73.150;2022-08-03T09:15:33;22.81;47.29
72762;SHT30;60886;55.034;73.150;2022-08-03T09:18:02;22.78;48.19
72762;SHT30;60886;55.034;73.150;2022-08-03T09:20:31;22.78;46.28
72762;SHT30;60886;55.034;73.150;2022-08-03T09:23:00;22.72;46.87
72762;SHT30;60886;55.034;73.150;2022-08-03T09:25:44;22.85;46.47
72762;SHT30;60886;55.034;73.150;2022-08-03T09:28:13;22.88;45.86
72762;SHT30;60886;55.034;73.150;2022-08-03T09:30:42;22.91;47.30
72762;SHT30;60886;55.034;73.150;2022-08-03T09:33:11;22.94;47.01
72762;SHT30;60886;55.034;73.150;2022-08-03T09:35:42;22.85;47.77
72762;SHT30;60886;55.034;73.150;2022-08-03T09:38:20;22.92;48.83
72762;SHT30;60886;55.034;73.150;2022-08-03T09:40:54;22.90;47.52
72762;SHT30;60886;55.034;73.150;2022-08-03T09:43:21;22.94;47.83
72762;SHT30;60886;55.034;73.150;2022-08-03T09:45:48;22.99;46.16
72762;SHT30;60886;55.034;73.150;2022-08-03T09:48:28;23.02;45.19
72762;SHT30;60886;55.034;73.150;2022-08-03T09:51:00;22.98;46.65
72762;SHT30;60886;55.034;73.150;2022-08-03T09:53:28;23.11;46.50
72762;SHT30;60886;55.034;73.150;2022-08-03T09:56:01;23.11;47.03
72762;SHT30;60886;55.034;73.150;2022-08-03T09:58:29;23.12;45.66
72762;SHT30;60886;55.034;73.150;2022-08-03T10:01:01;23.11;45.83
72762;SHT30;60886;55.034;73.150;2022-08-03T10:03:36;23.08;47.56
72762;SHT30;60886;55.034;73.150;2022-08-03T10:06:17;23.09;46.72
72762;SHT30;60886;55.034;73.150;2022-08-03T10:09:08;23.16;46.55
72762;SHT30;60886;55.034;73.150;2022-08-03T10:11:36;23.19;46.51
72762;SHT30;60886;55.034;73.150;2022-08-03T10:14:04;23.22;47.17
72762;SHT30;60886;55.034;73.150;2022-08-03T10:16:38;23.23;46.17
72762;SHT30;60886;55.034;73.150;2022-08-03T10:19:08;23.20;46.65
72762;SHT30;60886;55.034;73.150;2022-08-03T10:21:37;23.22;45.87
72762;SHT30;60886;55.034;73.150;2022-08-03T10:24:06;23.23;46.84
72762;SHT30;60886;55.034;73.150;2022-08-03T10:26:35;23.30;45.46
72762;SHT30;60886;55.034;73.150;2022-08-03T10:29:04;23.28;45.32
72762;SHT30;60886;55.034;73.150;2022-08-03T10:31:43;23.25;45.65
72762;SHT30;60886;55.034;73.150;2022-08-03T10:34:33;23.28;45.65
72762;SHT30;60886;55.034;73.150;2022-08-03T10:37:04;23.30;45.25
72762;SHT30;60886;55.034;73.150;2022-08-03T10:39:34;23.26;45.98
72762;SHT30;60886;55.034;73.150;2022-08-03T10:42:02;23.26;46.77
72762;SHT30;60886;55.034;73.150;2022-08-03T10:44:36;23.25;46.37
72762;SHT30;60886;55.034;73.150;2022-08-03T10:47:05;23.23;45.36
72762;SHT30;60886;55.034;73.150;2022-08-03T10:49:32;23.29;46.25
72762;SHT30;60886;55.034;73.150;2022-08-03T10:51:58;23.30;45.92
72762;SHT30;60886;55.034;73.150;2022-08-03T10:54:42;23.29;45.10
72762;SHT30;60886;55.034;73.150;2022-08-03T11:00:16;23.20;45.66
72762;SHT30;60886;55.034;73.150;2022-08-03T11:03:03;23.23;47.00
72762;SHT30;60886;55.034;73.150;2022-08-03T11:05:38;23.25;45.36
72762;SHT30;60886;55.034;73.150;2022-08-03T11:08:26;23.22;44.93
72762;SHT30;60886;55.034;73.150;2022-08-03T11:10:58;23.23;47.38
72762;SHT30;60886;55.034;73.150;2022-08-03T11:13:27;23.30;46.12
72762;SHT30;60886;55.034;73.150;2022-08-03T11:15:59;23.35;46.64
72762;SHT30;60886;55.034;73.150;2022-08-03T11:18:26;23.32;45.04
72762;SHT30;60886;55.034;73.150;2022-08-03T11:20:58;23.25;46.47
72762;SHT30;60886;55.034;73.150;2022-08-03T11:23:45;23.28;46.47
72762;SHT30;60886;55.034;73.150;2022-08-03T11:26:20;23.29;46.04
72762;SHT30;60886;55.034;73.150;2022-08-03T11:29:25;23.29;47.02
72762;SHT30;60886;55.034;73.150;2022-08-03T11:31:57;23.28;46.24
72762;SHT30;60886;55.034;73.150;2022-08-03T11:34:23;23.28;46.78
72762;SHT30;60886;55.034;73.150;2022-08-03T11:39:47;23.25;45.70
72762;SHT30;60886;55.034;73.150;2022-08-03T11:44:59;23.22;47.20
72762;SHT30;60886;55.034;73.150;2022-08-03T11:47:27;23.19;49.23
72762;SHT30;60886;55.034;73.150;2022-08-03T11:50:04;23.23;47.91
72762;SHT30;60886;55.034;73.150;2022-08-03T11:52:37;23.25;48.49
72762;SHT30;60886;55.034;73.150;2022-08-03T11:55:09;23.26;47.17
72762;SHT30;60886;55.034;73.150;2022-08-03T11:57:45;23.19;46.21
72762;SHT30;60886;55.034;73.150;2022-08-03T12:03:03;23.12;48.30
72762;SHT30;60886;55.034;73.150;2022-08-03T12:05:35;23.12;46.93
72762;SHT30;60886;55.034;73.150;2022-08-03T12:08:02;23.12;46.10
72762;SHT30;60886;55.034;73.150;2022-08-03T12:10:29;23.15;45.92
72762;SHT30;60886;55.034;73.150;2022-08-03T12:12:56;23.15;48.07
72762;SHT30;60886;55.034;73.150;2022-08-03T12:15:25;23.18;47.22
72762;SHT30;60886;55.034;73.150;2022-08-03T12:17:56;23.11;47.18
72762;SHT30;60886;55.034;73.150;2022-08-03T12:20:26;23.08;48.64
72762;SHT30;60886;55.034;73.150;2022-08-03T12:22:53;23.06;47.62
72762;SHT30;60886;55.034;73.150;2022-08-03T12:25:25;23.06;47.94
72762;SHT30;60886;55.034;73.150;2022-08-03T12:30:39;22.99;48.92
72762;SHT30;60886;55.034;73.150;2022-08-03T12:36:24;22.98;47.76
72762;SHT30;60886;55.034;73.150;2022-08-03T12:38:56;22.99;48.92
72762;SHT30;60886;55.034;73.150;2022-08-03T12:41:31;22.95;48.48
72762;SHT30;60886;55.034;73.150;2022-08-03T12:43:58;22.91;48.96
72762;SHT30;60886;55.034;73.150;2022-08-03T12:46:30;22.92;49.06
72762;SHT30;60886;55.034;73.150;2022-08-03T12:51:30;22.90;49.72
72762;SHT30;60886;55.034;73.150;2022-08-03T12:54:01;22.91;50.56
72762;SHT30;60886;55.034;73.150;2022-08-03T12:56:28;22.90;48.64
72762;SHT30;60886;55.034;73.150;2022-08-03T12:58:54;22.87;48.99
72762;SHT30;60886;55.034;73.150;2022-08-03T13:01:21;22.85;49.38
72762;SHT30;60886;55.034;73.150;2022-08-03T13:03:51;22.84;49.21
72762;SHT30;60886;55.034;73.150;2022-08-03T13:06:23;22.83;49.94
72762;SHT30;60886;55.034;73.150;2022-08-03T13:09:06;22.84;49.47
72762;SHT30;60886;55.034;73.150;2022-08-03T13:11:33;22.79;49.80
72762;SHT30;60886;55.034;73.150;2022-08-03T13:14:05;22.79;49.36
72762;SHT30;60886;55.034;73.150;2022-08-03T13:16:39;22.78;49.89
72762;SHT30;60886;55.034;73.150;2022-08-03T13:19:06;22.76;50.32
72762;SHT30;60886;55.034;73.150;2022-08-03T13:21:40;22.74;50.53
72762;SHT30;60886;55.034;73.150;2022-08-03T13:24:07;22.75;49.72
72762;SHT30;60886;55.034;73.150;2022-08-03T13:26:33;22.69;50.03
72762;SHT30;60886;55.034;73.150;2022-08-03T13:29:05;22.69;50.47
72762;SHT30;60886;55.034;73.150;2022-08-03T13:31:31;22.68;51.07
72762;SHT30;60886;55.034;73.150;2022-08-03T13:33:58;22.63;50.64
72762;SHT30;60886;55.034;73.150;2022-08-03T13:36:24;22.60;50.39
72762;SHT30;60886;55.034;73.150;2022-08-03T13:38:51;22.58;51.16
72762;SHT30;60886;55.034;73.150;2022-08-03T13:41:17;22.55;51.38
72762;SHT30;60886;55.034;73.150;2022-08-03T13:43:44;22.53;50.68
72762;SHT30;60886;55.034;73.150;2022-08-03T13:46:10;22.51;51.06
72762;SHT30;60886;55.034;73.150;2022-08-03T13:48:37;22.51;51.45
72762;SHT30;60886;55.034;73.150;2022-08-03T13:51:08;22.48;51.19
72762;SHT30;60886;55.034;73.150;2022-08-03T13:53:40;22.44;51.33
72762;SHT30;60886;55.034;73.150;2022-08-03T13:56:06;22.40;52.61
72762;SHT30;60886;55.034;73.150;2022-08-03T13:58:33;22.37;52.78
72762;SHT30;60886;55.034;73.150;2022-08-03T14:00:59;22.36;52.60
72762;SHT30;60886;55.034;73.150;2022-08-03T14:03:26;22.30;52.15
72762;SHT30;60886;55.034;73.150;2022-08-03T14:06:11;22.29;51.94
72762;SHT30;60886;55.034;73.150;2022-08-03T14:08:42;22.25;51.85
72762;SHT30;60886;55.034;73.150;2022-08-03T14:11:10;22.23;52.54
72762;SHT30;60886;55.034;73.150;2022-08-03T14:13:37;22.18;53.02
72762;SHT30;60886;55.034;73.150;2022-08-03T14:16:04;22.13;52.47
72762;SHT30;60886;55.034;73.150;2022-08-03T14:18:34;22.11;52.52
72762;SHT30;60886;55.034;73.150;2022-08-03T14:21:02;22.10;53.05
72762;SHT30;60886;55.034;73.150;2022-08-03T14:23:29;22.04;53.66
72762;SHT30;60886;55.034;73.150;2022-08-03T14:25:55;21.99;54.13
72762;SHT30;60886;55.034;73.150;2022-08-03T14:28:23;21.94;54.87
72762;SHT30;60886;55.034;73.150;2022-08-03T14:30:55;21.85;54.66
72762;SHT30;60886;55.034;73.150;2022-08-03T14:33:22;21.82;54.75
72762;SHT30;60886;55.034;73.150;2022-08-03T14:36:00;21.75;55.31
72762;SHT30;60886;55.034;73.150;2022-08-03T14:38:26;21.73;55.62
72762;SHT30;60886;55.034;73.150;2022-08-03T14:40:53;21.65;55.42
72762;SHT30;60886;55.034;73.150;2022-08-03T14:46:07;21.60;56.33
72762;SHT30;60886;55.034;73.150;2022-08-03T14:48:45;21.53;56.43
72762;SHT30;60886;55.034;73.150;2022-08-03T14:51:52;21.46;57.02
72762;SHT30;60886;55.034;73.150;2022-08-03T14:54:20;21.42;57.22
72762;SHT30;60886;55.034;73.150;2022-08-03T14:56:47;21.37;57.58
72762;SHT30;60886;55.034;73.150;2022-08-03T15:02:18;21.21;57.95
72762;SHT30;60886;55.034;73.150;2022-08-03T15:04:59;21.18;58.02
72762;SHT30;60886;55.034;73.150;2022-08-03T15:07:34;21.12;58.16
72762;SHT30;60886;55.034;73.150;2022-08-03T15:10:13;21.04;58.24
72762;SHT30;60886;55.034;73.150;2022-08-03T15:16:10;20.98;58.87
72762;SHT30;60886;55.034;73.150;2022-08-03T15:18:37;20.94;58.92
72762;SHT30;60886;55.034;73.150;2022-08-03T15:21:03;20.90;58.97
72762;SHT30;60886;55.034;73.150;2022-08-03T15:23:30;20.85;59.22
72762;SHT30;60886;55.034;73.150;2022-08-03T15:25:56;20.81;59.32
72762;SHT30;60886;55.034;73.150;2022-08-03T15:28:26;20.80;59.56
72762;SHT30;60886;55.034;73.150;2022-08-03T15:31:22;20.70;59.82
72762;SHT30;60886;55.034;73.150;2022-08-03T15:33:59;20.63;60.15
72762;SHT30;60886;55.034;73.150;2022-08-03T15:36:26;20.53;60.65
72762;SHT30;60886;55.034;73.150;2022-08-03T15:38:53;20.47;60.98
72762;SHT30;60886;55.034;73.150;2022-08-03T15:41:24;20.34;61.47
72762;SHT30;60886;55.034;73.150;2022-08-03T15:43:52;20.30;61.61
72762;SHT30;60886;55.034;73.150;2022-08-03T15:46:30;20.26;61.83
72762;SHT30;60886;55.034;73.150;2022-08-03T15:49:03;20.22;62.02
72762;SHT30;60886;55.034;73.150;2022-08-03T15:51:30;20.13;62.44
72762;SHT30;60886;55.034;73.150;2022-08-03T15:53:57;20.12;62.57
72762;SHT30;60886;55.034;73.150;2022-08-03T15:56:33;20.06;62.66
72762;SHT30;60886;55.034;73.150;2022-08-03T15:58:59;20.03;62.77
72762;SHT30;60886;55.034;73.150;2022-08-03T16:01:26;19.99;63.20
72762;SHT30;60886;55.034;73.150;2022-08-03T16:03:53;19.89;63.44
72762;SHT30;60886;55.034;73.150;2022-08-03T16:06:19;19.85;63.47
72762;SHT30;60886;55.034;73.150;2022-08-03T16:08:47;19.79;63.73
72762;SHT30;60886;55.034;73.150;2022-08-03T16:11:13;19.76;64.02
72762;SHT30;60886;55.034;73.150;2022-08-03T16:13:39;19.69;64.27
72762;SHT30;60886;55.034;73.150;2022-08-03T16:16:15;19.61;66.67
72762;SHT30;60886;55.034;73.150;2022-08-03T16:18:41;19.42;65.71
72762;SHT30;60886;55.034;73.150;2022-08-03T16:21:08;19.39;67.77
72762;SHT30;60886;55.034;73.150;2022-08-03T16:23:45;19.19;69.21
72762;SHT30;60886;55.034;73.150;2022-08-03T16:26:12;18.96;68.69